createdAt,value
2017-08-16T00:00:44.120Z,18.5
2017-08-16T00:01:46.957Z,18.5
2017-08-16T00:02:49.402Z,18.6
2017-08-16T00:03:51.856Z,18.5
2017-08-16T00:04:54.307Z,18.5
2017-08-16T00:05:56.756Z,18.5
2017-08-16T00:06:59.209Z,18.5
2017-08-16T00:08:01.684Z,18.5
2017-08-16T00:09:04.491Z,18.5
2017-08-16T00:10:07.295Z,18.5
2017-08-16T00:11:10.102Z,18.5
2017-08-16T00:12:12.554Z,18.5
2017-08-16T00:13:15.000Z,18.5
2017-08-16T00:14:17.466Z,18.5
2017-08-16T00:15:20.257Z,18.5
2017-08-16T00:16:22.711Z,18.5
2017-08-16T00:17:25.160Z,18.5
2017-08-16T00:18:27.612Z,18.5
2017-08-16T00:19:30.751Z,18.5
2017-08-16T00:20:33.222Z,18.5
2017-08-16T00:21:35.678Z,18.5
2017-08-16T00:22:38.135Z,18.4
2017-08-16T00:23:40.620Z,18.4
2017-08-16T00:24:43.108Z,18.4
2017-08-16T00:25:45.573Z,18.4
2017-08-16T00:26:48.036Z,18.4
2017-08-16T00:27:50.473Z,18.4
2017-08-16T00:28:52.939Z,18.4
2017-08-16T00:29:55.733Z,18.4
2017-08-16T00:30:58.176Z,18.4
2017-08-16T00:32:00.638Z,18.4
2017-08-16T00:33:03.429Z,18.4
2017-08-16T00:34:06.227Z,18.4
2017-08-16T00:35:09.043Z,18.4
2017-08-16T00:36:11.836Z,18.4
2017-08-16T00:37:14.963Z,18.4
2017-08-16T00:38:17.419Z,18.4
2017-08-16T00:39:19.887Z,18.4
2017-08-16T00:40:22.349Z,18.4
2017-08-16T00:41:25.136Z,18.4
2017-08-16T00:42:27.932Z,18.4
2017-08-16T00:43:30.386Z,18.4
2017-08-16T00:44:33.200Z,18.4
2017-08-16T00:45:36.014Z,18.4
2017-08-16T00:46:38.465Z,18.4
2017-08-16T00:47:41.257Z,18.4
2017-08-16T00:48:44.411Z,18.4
2017-08-16T00:49:47.201Z,18.4
2017-08-16T00:50:49.660Z,18.4
2017-08-16T00:51:52.456Z,18.4
2017-08-16T00:52:54.910Z,18.4
2017-08-16T00:53:57.713Z,18.4
2017-08-16T00:55:00.552Z,18.4
2017-08-16T00:56:03.989Z,18.4
2017-08-16T00:57:06.448Z,18.4
2017-08-16T00:58:09.238Z,18.4
2017-08-16T00:59:11.701Z,18.4
2017-08-16T01:00:14.496Z,18.4
2017-08-16T01:01:16.962Z,18.4
2017-08-16T01:02:20.118Z,18.4
2017-08-16T01:03:22.579Z,18.4
2017-08-16T01:04:25.032Z,18.3
2017-08-16T01:05:27.483Z,18.4
2017-08-16T01:06:29.940Z,18.3
2017-08-16T01:07:32.399Z,18.3
2017-08-16T01:08:35.197Z,18.3
2017-08-16T01:09:37.669Z,18.3
2017-08-16T01:10:40.117Z,18.3
2017-08-16T01:11:43.266Z,18.3
2017-08-16T01:12:45.728Z,18.2
2017-08-16T01:13:48.906Z,18.2
2017-08-16T01:14:51.694Z,18.2
2017-08-16T01:15:54.144Z,18.2
2017-08-16T01:16:56.598Z,18.2
2017-08-16T01:17:59.056Z,18.1
2017-08-16T01:19:01.842Z,18.1
2017-08-16T01:20:04.998Z,18.1
2017-08-16T01:21:07.448Z,18.1
2017-08-16T01:22:09.907Z,18.2
2017-08-16T01:23:12.359Z,18.1
2017-08-16T01:24:14.820Z,18.2
2017-08-16T01:25:17.606Z,18.2
2017-08-16T01:26:20.076Z,18.2
2017-08-16T01:27:22.532Z,18.2
2017-08-16T01:28:25.001Z,18.2
2017-08-16T01:29:27.792Z,18.2
2017-08-16T01:30:30.591Z,18.2
2017-08-16T01:31:33.054Z,18.2
2017-08-16T01:32:35.864Z,18.2
2017-08-16T01:33:38.320Z,18.2
2017-08-16T01:34:40.775Z,18.2
2017-08-16T01:35:43.568Z,18.2
2017-08-16T01:36:46.704Z,18.2
2017-08-16T01:37:49.161Z,18.2
2017-08-16T01:38:52.296Z,18.2
2017-08-16T01:39:54.758Z,18.2
2017-08-16T01:40:57.215Z,18.2
2017-08-16T01:41:59.662Z,18.2
2017-08-16T01:43:02.119Z,18.1
2017-08-16T01:44:05.267Z,18.1
2017-08-16T01:45:08.403Z,18.1
2017-08-16T01:46:11.199Z,18
2017-08-16T01:47:13.654Z,18
2017-08-16T01:48:16.459Z,18
2017-08-16T01:49:18.913Z,18
2017-08-16T01:50:21.364Z,18
2017-08-16T01:51:23.811Z,18
2017-08-16T01:52:27.291Z,18
2017-08-16T01:53:29.762Z,17.9
2017-08-16T01:54:32.565Z,17.9
2017-08-16T01:55:35.030Z,17.9
2017-08-16T01:56:37.475Z,17.9
2017-08-16T01:57:39.925Z,17.9
2017-08-16T01:58:42.733Z,17.8
2017-08-16T01:59:45.191Z,17.8
2017-08-16T02:00:47.637Z,17.8
2017-08-16T02:01:50.439Z,17.8
2017-08-16T02:02:53.587Z,17.7
2017-08-16T02:03:56.047Z,17.7
2017-08-16T02:04:58.507Z,17.7
2017-08-16T02:06:00.957Z,17.7
2017-08-16T02:07:04.089Z,17.7
2017-08-16T02:08:06.564Z,17.7
2017-08-16T02:09:10.055Z,17.7
2017-08-16T02:10:12.839Z,17.6
2017-08-16T02:11:15.297Z,17.6
2017-08-16T02:12:17.770Z,17.6
2017-08-16T02:13:20.237Z,17.6
2017-08-16T02:14:22.703Z,17.6
2017-08-16T02:15:25.158Z,17.6
2017-08-16T02:16:27.608Z,17.6
2017-08-16T02:17:30.106Z,17.6
2017-08-16T02:18:32.914Z,17.6
2017-08-16T02:19:35.712Z,17.6
2017-08-16T02:20:38.514Z,17.6
2017-08-16T02:21:41.657Z,17.6
2017-08-16T02:22:44.131Z,17.6
2017-08-16T02:23:46.597Z,17.6
2017-08-16T02:24:49.378Z,17.6
2017-08-16T02:25:51.862Z,17.6
2017-08-16T02:26:54.323Z,17.6
2017-08-16T02:27:56.779Z,17.6
2017-08-16T02:28:59.238Z,17.6
2017-08-16T02:30:02.739Z,17.5
2017-08-16T02:31:05.890Z,17.5
2017-08-16T02:32:08.727Z,17.5
2017-08-16T02:33:11.201Z,17.5
2017-08-16T02:34:14.333Z,17.5
2017-08-16T02:35:17.473Z,17.6
2017-08-16T02:36:19.947Z,17.5
2017-08-16T02:37:22.771Z,17.5
2017-08-16T02:38:25.562Z,17.5
2017-08-16T02:39:28.015Z,17.5
2017-08-16T02:40:30.483Z,17.5
2017-08-16T02:41:32.925Z,17.5
2017-08-16T02:42:36.418Z,17.5
2017-08-16T02:43:39.586Z,17.5
2017-08-16T02:44:42.041Z,17.5
2017-08-16T02:45:44.826Z,17.5
2017-08-16T02:46:47.296Z,17.5
2017-08-16T02:47:49.750Z,17.5
2017-08-16T02:48:52.577Z,17.5
2017-08-16T02:49:55.030Z,17.5
2017-08-16T02:50:57.494Z,17.5
2017-08-16T02:51:59.942Z,17.5
2017-08-16T02:53:02.756Z,17.6
2017-08-16T02:54:05.594Z,17.6
2017-08-16T02:55:08.047Z,17.6
2017-08-16T02:56:10.501Z,17.6
2017-08-16T02:57:12.975Z,17.5
2017-08-16T02:58:15.795Z,17.5
2017-08-16T02:59:18.936Z,17.5
2017-08-16T03:00:21.381Z,17.5
2017-08-16T03:01:23.837Z,17.5
2017-08-16T03:02:26.634Z,17.6
2017-08-16T03:03:29.090Z,17.6
2017-08-16T03:04:31.552Z,17.5
2017-08-16T03:05:33.999Z,17.5
2017-08-16T03:06:36.445Z,17.5
2017-08-16T03:07:38.917Z,17.5
2017-08-16T03:08:41.375Z,17.5
2017-08-16T03:09:43.831Z,17.5
2017-08-16T03:10:46.287Z,17.5
2017-08-16T03:11:49.077Z,17.5
2017-08-16T03:12:51.530Z,17.5
2017-08-16T03:13:53.977Z,17.5
2017-08-16T03:14:56.435Z,17.5
2017-08-16T03:15:58.897Z,17.5
2017-08-16T03:17:01.459Z,17.5
2017-08-16T03:18:04.597Z,17.5
2017-08-16T03:19:07.390Z,17.5
2017-08-16T03:20:10.199Z,17.4
2017-08-16T03:21:13.000Z,17.4
2017-08-16T03:22:15.456Z,17.4
2017-08-16T03:23:18.248Z,17.5
2017-08-16T03:24:21.376Z,17.5
2017-08-16T03:25:23.841Z,17.5
2017-08-16T03:26:26.306Z,17.5
2017-08-16T03:27:29.087Z,17.4
2017-08-16T03:28:31.871Z,17.5
2017-08-16T03:29:34.328Z,17.5
2017-08-16T03:30:36.801Z,17.4
2017-08-16T03:31:39.266Z,17.4
2017-08-16T03:32:42.064Z,17.4
2017-08-16T03:33:44.841Z,17.4
2017-08-16T03:34:48.010Z,17.4
2017-08-16T03:35:50.470Z,17.4
2017-08-16T03:36:53.267Z,17.4
2017-08-16T03:37:56.387Z,17.4
2017-08-16T03:38:59.229Z,17.4
2017-08-16T03:40:02.024Z,17.4
2017-08-16T03:41:04.809Z,17.4
2017-08-16T03:42:07.613Z,17.4
2017-08-16T03:43:10.066Z,17.4
2017-08-16T03:44:13.548Z,17.4
2017-08-16T03:45:16.017Z,17.4
2017-08-16T03:46:18.468Z,17.4
2017-08-16T03:47:20.928Z,17.4
2017-08-16T03:48:23.733Z,17.4
2017-08-16T03:49:26.184Z,17.4
2017-08-16T03:50:28.635Z,17.4
2017-08-16T03:51:31.419Z,17.4
2017-08-16T03:52:34.218Z,17.4
2017-08-16T03:53:37.357Z,17.4
2017-08-16T03:54:40.152Z,17.4
2017-08-16T03:55:42.604Z,17.4
2017-08-16T03:56:45.396Z,17.4
2017-08-16T03:57:47.847Z,17.4
2017-08-16T03:58:50.306Z,17.4
2017-08-16T03:59:52.752Z,17.5
2017-08-16T04:00:55.230Z,17.4
2017-08-16T04:01:57.676Z,17.4
2017-08-16T04:03:00.468Z,17.3
2017-08-16T04:04:03.600Z,17.4
2017-08-16T04:05:06.420Z,17.4
2017-08-16T04:06:09.202Z,17.4
2017-08-16T04:07:11.666Z,17.3
2017-08-16T04:08:14.103Z,17.3
2017-08-16T04:09:16.901Z,17.3
2017-08-16T04:10:19.364Z,17.3
2017-08-16T04:11:21.835Z,17.3
2017-08-16T04:12:24.281Z,17.3
2017-08-16T04:13:27.086Z,17.3
2017-08-16T04:14:29.569Z,17.3
2017-08-16T04:15:32.032Z,17.4
2017-08-16T04:16:34.493Z,17.3
2017-08-16T04:17:37.285Z,17.3
2017-08-16T04:18:39.764Z,17.3
2017-08-16T04:19:42.575Z,17.3
2017-08-16T04:20:45.704Z,17.3
2017-08-16T04:21:48.484Z,17.3
2017-08-16T04:22:50.935Z,17.3
2017-08-16T04:23:53.378Z,17.3
2017-08-16T04:24:55.835Z,17.3
2017-08-16T04:25:58.290Z,17.3
2017-08-16T04:27:01.087Z,17.3
2017-08-16T04:28:03.544Z,17.3
2017-08-16T04:29:06.007Z,17.3
2017-08-16T04:30:08.450Z,17.4
2017-08-16T04:31:11.270Z,17.3
2017-08-16T04:32:13.713Z,17.3
2017-08-16T04:33:16.169Z,17.4
2017-08-16T04:34:19.304Z,17.4
2017-08-16T04:35:21.760Z,17.3
2017-08-16T04:36:24.225Z,17.3
2017-08-16T04:37:27.052Z,17.3
2017-08-16T04:38:29.858Z,17.3
2017-08-16T04:39:32.329Z,17.3
2017-08-16T04:40:35.119Z,17.4
2017-08-16T04:41:37.922Z,17.4
2017-08-16T04:42:40.377Z,17.4
2017-08-16T04:43:43.169Z,17.4
2017-08-16T04:44:45.974Z,17.4
2017-08-16T04:45:48.437Z,17.4
2017-08-16T04:46:50.885Z,17.4
2017-08-16T04:47:53.696Z,17.4
2017-08-16T04:48:56.508Z,17.4
2017-08-16T04:49:58.958Z,17.4
2017-08-16T04:51:02.105Z,17.4
2017-08-16T04:52:04.898Z,17.4
2017-08-16T04:53:07.408Z,17.4
2017-08-16T04:54:10.541Z,17.4
2017-08-16T04:55:13.670Z,17.4
2017-08-16T04:56:16.132Z,17.4
2017-08-16T04:57:19.283Z,17.4
2017-08-16T04:58:22.099Z,17.4
2017-08-16T04:59:24.547Z,17.4
2017-08-16T05:00:27.018Z,17.4
2017-08-16T05:01:29.495Z,17.4
2017-08-16T05:02:31.941Z,17.4
2017-08-16T05:03:34.401Z,17.4
2017-08-16T05:04:36.845Z,17.4
2017-08-16T05:05:39.334Z,17.4
2017-08-16T05:06:41.799Z,17.4
2017-08-16T05:07:44.246Z,17.4
2017-08-16T05:08:47.050Z,17.4
2017-08-16T05:09:49.841Z,17.4
2017-08-16T05:10:52.665Z,17.4
2017-08-16T05:11:55.451Z,17.4
2017-08-16T05:12:58.252Z,17.4
2017-08-16T05:14:01.041Z,17.4
2017-08-16T05:15:04.534Z,17.5
2017-08-16T05:16:07.005Z,17.4
2017-08-16T05:17:09.458Z,17.4
2017-08-16T05:18:11.907Z,17.4
2017-08-16T05:19:14.365Z,17.5
2017-08-16T05:20:16.814Z,17.5
2017-08-16T05:21:19.967Z,17.4
2017-08-16T05:22:22.751Z,17.4
2017-08-16T05:23:25.929Z,17.4
2017-08-16T05:24:28.728Z,17.5
2017-08-16T05:25:31.179Z,17.5
2017-08-16T05:26:33.793Z,17.5
2017-08-16T05:27:36.259Z,17.5
2017-08-16T05:28:39.053Z,17.5
2017-08-16T05:29:41.523Z,17.5
2017-08-16T05:30:43.966Z,17.5
2017-08-16T05:31:46.419Z,17.5
2017-08-16T05:32:48.881Z,17.5
2017-08-16T05:33:51.339Z,17.5
2017-08-16T05:34:54.137Z,17.5
2017-08-16T05:35:56.592Z,17.5
2017-08-16T05:36:59.046Z,17.5
2017-08-16T05:38:02.177Z,17.5
2017-08-16T05:39:04.639Z,17.5
2017-08-16T05:40:07.796Z,17.5
2017-08-16T05:41:10.609Z,17.5
2017-08-16T05:42:13.073Z,17.5
2017-08-16T05:43:15.524Z,17.5
2017-08-16T05:44:17.968Z,17.5
2017-08-16T05:45:20.454Z,17.5
2017-08-16T05:46:22.901Z,17.5
2017-08-16T05:47:25.347Z,17.5
2017-08-16T05:48:27.811Z,17.5
2017-08-16T05:49:30.269Z,17.5
2017-08-16T05:50:32.722Z,17.6
2017-08-16T05:51:35.177Z,17.6
2017-08-16T05:52:37.972Z,17.6
2017-08-16T05:53:40.431Z,17.6
2017-08-16T05:54:43.237Z,17.6
2017-08-16T05:55:46.020Z,17.6
2017-08-16T05:56:49.137Z,17.6
2017-08-16T05:57:51.606Z,17.7
2017-08-16T05:58:54.403Z,17.7
2017-08-16T05:59:56.867Z,17.8
2017-08-16T06:00:59.666Z,17.9
2017-08-16T06:02:02.800Z,17.7
2017-08-16T06:03:05.952Z,17.6
2017-08-16T06:04:09.100Z,17.6
2017-08-16T06:05:11.552Z,17.6
2017-08-16T06:06:14.352Z,17.6
2017-08-16T06:07:17.167Z,17.6
2017-08-16T06:08:20.000Z,17.6
2017-08-16T06:09:22.787Z,17.6
2017-08-16T06:10:25.240Z,17.6
2017-08-16T06:11:27.710Z,17.6
2017-08-16T06:12:30.506Z,17.6
2017-08-16T06:13:33.298Z,17.6
2017-08-16T06:14:36.094Z,17.7
2017-08-16T06:15:38.591Z,17.7
2017-08-16T06:16:41.046Z,17.7
2017-08-16T06:17:43.852Z,17.7
2017-08-16T06:18:46.999Z,17.7
2017-08-16T06:19:49.460Z,17.7
2017-08-16T06:20:52.605Z,17.7
2017-08-16T06:21:55.390Z,17.7
2017-08-16T06:22:57.854Z,17.6
2017-08-16T06:24:00.314Z,17.7
2017-08-16T06:25:03.172Z,17.7
2017-08-16T06:26:05.644Z,17.7
2017-08-16T06:27:08.106Z,17.7
2017-08-16T06:28:10.546Z,17.7
2017-08-16T06:29:13.022Z,17.7
2017-08-16T06:30:15.488Z,17.7
2017-08-16T06:31:18.313Z,17.7
2017-08-16T06:32:20.806Z,17.7
2017-08-16T06:33:23.597Z,17.7
2017-08-16T06:34:26.385Z,17.7
2017-08-16T06:35:28.856Z,17.8
2017-08-16T06:36:31.661Z,17.8
2017-08-16T06:37:34.113Z,17.9
2017-08-16T06:38:36.592Z,17.9
2017-08-16T06:39:39.392Z,17.8
2017-08-16T06:40:42.198Z,17.7
2017-08-16T06:41:44.994Z,17.7
2017-08-16T06:42:47.470Z,17.7
2017-08-16T06:43:49.911Z,17.7
2017-08-16T06:44:52.719Z,17.8
2017-08-16T06:45:55.510Z,17.7
2017-08-16T06:46:58.647Z,17.7
2017-08-16T06:48:01.809Z,17.7
2017-08-16T06:49:05.626Z,17.8
2017-08-16T06:50:08.756Z,17.8
2017-08-16T06:51:11.219Z,17.8
2017-08-16T06:52:13.675Z,17.8
2017-08-16T06:53:16.126Z,17.8
2017-08-16T06:54:18.595Z,17.8
2017-08-16T06:55:21.056Z,17.8
2017-08-16T06:56:23.501Z,17.9
2017-08-16T06:57:25.957Z,17.9
2017-08-16T06:58:28.806Z,17.9
2017-08-16T06:59:31.264Z,17.9
2017-08-16T07:00:33.731Z,17.9
2017-08-16T07:01:36.539Z,17.9
2017-08-16T07:02:39.323Z,18
2017-08-16T07:03:41.793Z,18
2017-08-16T07:04:44.589Z,17.9
2017-08-16T07:05:47.723Z,17.9
2017-08-16T07:06:50.527Z,17.9
2017-08-16T07:07:52.993Z,17.9
2017-08-16T07:08:55.809Z,17.9
2017-08-16T07:09:58.261Z,17.9
2017-08-16T07:11:01.054Z,17.9
2017-08-16T07:12:04.529Z,17.9
2017-08-16T07:13:06.984Z,17.9
2017-08-16T07:14:10.114Z,17.9
2017-08-16T07:15:12.924Z,17.9
2017-08-16T07:16:15.378Z,17.8
2017-08-16T07:17:18.190Z,17.9
2017-08-16T07:18:21.368Z,17.9
2017-08-16T07:19:24.851Z,18
2017-08-16T07:20:27.330Z,18
2017-08-16T07:21:30.125Z,18
2017-08-16T07:22:32.918Z,17.9
2017-08-16T07:23:35.380Z,18
2017-08-16T07:24:38.175Z,18.1
2017-08-16T07:25:41.043Z,18
2017-08-16T07:26:43.829Z,18.1
2017-08-16T07:27:46.298Z,18.1
2017-08-16T07:28:48.768Z,18.1
2017-08-16T07:29:51.241Z,18.2
2017-08-16T07:30:53.705Z,18.2
2017-08-16T07:31:56.161Z,18.3
2017-08-16T07:32:58.621Z,18.3
2017-08-16T07:34:01.087Z,18.4
2017-08-16T07:35:04.555Z,18.4
2017-08-16T07:36:07.014Z,18.4
2017-08-16T07:37:09.477Z,18.5
2017-08-16T07:38:11.937Z,18.5
2017-08-16T07:39:14.741Z,18.5
2017-08-16T07:40:17.192Z,18.6
2017-08-16T07:41:19.658Z,18.7
2017-08-16T07:42:22.473Z,18.8
2017-08-16T07:43:24.943Z,18.8
2017-08-16T07:44:27.736Z,18.8
2017-08-16T07:45:30.871Z,18.9
2017-08-16T07:46:33.338Z,18.9
2017-08-16T07:47:35.800Z,18.8
2017-08-16T07:48:38.246Z,19
2017-08-16T07:49:41.070Z,19
2017-08-16T07:50:43.859Z,19.1
2017-08-16T07:51:46.668Z,19.2
2017-08-16T07:52:49.473Z,19.2
2017-08-16T07:53:51.929Z,19.3
2017-08-16T07:54:54.386Z,19.4
2017-08-16T07:55:57.526Z,19.4
2017-08-16T07:57:00.666Z,19.5
2017-08-16T07:58:03.136Z,19.4
2017-08-16T07:59:05.614Z,19.5
2017-08-16T08:00:08.086Z,19.5
2017-08-16T08:01:10.893Z,19.5
2017-08-16T08:02:13.350Z,19.6
2017-08-16T08:03:15.805Z,19.6
2017-08-16T08:04:18.600Z,19.6
2017-08-16T08:05:21.063Z,19.7
2017-08-16T08:06:23.528Z,19.8
2017-08-16T08:07:25.977Z,19.7
2017-08-16T08:08:28.451Z,19.7
2017-08-16T08:09:31.601Z,19.8
2017-08-16T08:10:34.056Z,19.9
2017-08-16T08:11:36.522Z,20.1
2017-08-16T08:12:38.986Z,20
2017-08-16T08:13:41.463Z,20.1
2017-08-16T08:14:44.945Z,20.2
2017-08-16T08:15:47.411Z,20.3
2017-08-16T08:16:49.875Z,20.4
2017-08-16T08:17:52.357Z,20.4
2017-08-16T08:18:54.824Z,20.5
2017-08-16T08:19:57.291Z,20.5
2017-08-16T08:20:59.763Z,20.4
2017-08-16T08:22:02.908Z,20.4
2017-08-16T08:23:05.716Z,20.4
2017-08-16T08:24:08.185Z,20.5
2017-08-16T08:25:10.636Z,20.5
2017-08-16T08:26:13.108Z,20.4
2017-08-16T08:27:15.577Z,20.2
2017-08-16T08:28:18.374Z,20.3
2017-08-16T08:29:21.182Z,20.2
2017-08-16T08:30:24.332Z,20.1
2017-08-16T08:31:26.790Z,20.2
2017-08-16T08:32:29.281Z,20.1
2017-08-16T08:33:31.742Z,20.1
2017-08-16T08:34:34.194Z,20.3
2017-08-16T08:35:36.992Z,20.4
2017-08-16T08:36:40.153Z,20.5
2017-08-16T08:37:42.623Z,20.5
2017-08-16T08:38:45.104Z,20.5
2017-08-16T08:39:47.903Z,20.7
2017-08-16T08:40:50.364Z,20.6
2017-08-16T08:41:52.816Z,20.8
2017-08-16T08:42:55.627Z,20.9
2017-08-16T08:43:58.091Z,21
2017-08-16T08:45:00.560Z,21.4
2017-08-16T08:46:03.712Z,21.8
2017-08-16T08:47:06.510Z,21.9
2017-08-16T08:48:09.313Z,21.8
2017-08-16T08:49:12.134Z,21.8
2017-08-16T08:50:14.592Z,21.7
2017-08-16T08:51:17.062Z,21.8
2017-08-16T08:52:19.525Z,21.8
2017-08-16T08:53:21.990Z,21.8
2017-08-16T08:54:24.804Z,21.7
2017-08-16T08:55:27.607Z,21.8
2017-08-16T08:56:30.067Z,21.7
2017-08-16T08:57:32.876Z,21.6
2017-08-16T08:58:35.327Z,21.6
2017-08-16T08:59:37.811Z,21.6
2017-08-16T09:00:40.281Z,21.8
2017-08-16T09:01:43.106Z,22.1
2017-08-16T09:02:45.581Z,22
2017-08-16T09:03:48.072Z,21.8
2017-08-16T09:04:50.534Z,22
2017-08-16T09:05:52.999Z,22
2017-08-16T09:06:55.460Z,21.8
2017-08-16T09:07:58.248Z,21.8
2017-08-16T09:09:00.726Z,21.7
2017-08-16T09:10:03.205Z,21.6
2017-08-16T09:11:06.358Z,21.5
2017-08-16T09:12:09.163Z,21.6
2017-08-16T09:13:11.644Z,21.9
2017-08-16T09:14:14.107Z,21.8
2017-08-16T09:15:16.594Z,21.8
2017-08-16T09:16:19.059Z,21.6
2017-08-16T09:17:21.871Z,21.8
2017-08-16T09:18:24.364Z,21.7
2017-08-16T09:19:27.176Z,21.7
2017-08-16T09:20:29.997Z,21.7
2017-08-16T09:21:32.485Z,21.6
2017-08-16T09:22:34.931Z,21.7
2017-08-16T09:23:37.737Z,21.8
2017-08-16T09:24:40.211Z,22
2017-08-16T09:25:43.350Z,22.2
2017-08-16T09:26:45.829Z,22.2
2017-08-16T09:27:48.650Z,21.9
2017-08-16T09:28:51.453Z,22
2017-08-16T09:29:53.940Z,21.9
2017-08-16T09:30:56.767Z,21.9
2017-08-16T09:31:59.218Z,21.7
2017-08-16T09:33:01.699Z,21.7
2017-08-16T09:34:04.593Z,21.7
2017-08-16T09:35:07.765Z,21.5
2017-08-16T09:36:10.227Z,21.5
2017-08-16T09:37:12.690Z,21.4
2017-08-16T09:38:15.490Z,21.3
2017-08-16T09:39:18.310Z,21.3
2017-08-16T09:40:20.777Z,21.4
2017-08-16T09:41:23.252Z,21.5
2017-08-16T09:42:26.045Z,21.4
2017-08-16T09:43:28.525Z,21.2
2017-08-16T09:44:31.001Z,21.3
2017-08-16T09:45:33.804Z,21.3
2017-08-16T09:46:36.268Z,21.1
2017-08-16T09:47:38.734Z,21.2
2017-08-16T09:48:41.529Z,21.2
2017-08-16T09:49:44.698Z,21.3
2017-08-16T09:50:47.513Z,21.4
2017-08-16T09:51:50.318Z,21.3
2017-08-16T09:52:52.791Z,21.4
2017-08-16T09:53:55.595Z,21.4
2017-08-16T09:54:58.048Z,21.3
2017-08-16T09:56:00.515Z,21.3
2017-08-16T09:57:03.303Z,21.2
2017-08-16T09:58:05.784Z,21.2
2017-08-16T09:59:08.257Z,21.3
2017-08-16T10:00:11.054Z,21.2
2017-08-16T10:01:13.517Z,21.5
2017-08-16T10:02:15.992Z,21.5
2017-08-16T10:03:18.803Z,21.5
2017-08-16T10:04:21.615Z,21.5
2017-08-16T10:05:24.085Z,21.5
2017-08-16T10:06:26.554Z,21.5
2017-08-16T10:07:29.030Z,21.4
2017-08-16T10:08:31.497Z,21.2
2017-08-16T10:09:34.660Z,21.3
2017-08-16T10:10:37.135Z,21.2
2017-08-16T10:11:39.607Z,21.1
2017-08-16T10:12:42.407Z,20.9
2017-08-16T10:13:45.200Z,20.9
2017-08-16T10:14:48.355Z,20.9
2017-08-16T10:15:50.824Z,20.9
2017-08-16T10:16:53.276Z,20.9
2017-08-16T10:17:56.758Z,20.8
2017-08-16T10:18:59.216Z,20.8
2017-08-16T10:20:02.027Z,20.8
2017-08-16T10:21:05.178Z,20.9
2017-08-16T10:22:07.689Z,21
2017-08-16T10:23:10.149Z,21
2017-08-16T10:24:12.633Z,20.9
2017-08-16T10:25:15.100Z,21
2017-08-16T10:26:17.931Z,20.9
2017-08-16T10:27:20.723Z,21
2017-08-16T10:28:23.537Z,21
2017-08-16T10:29:25.999Z,21.1
2017-08-16T10:30:28.822Z,21.1
2017-08-16T10:31:31.954Z,21.2
2017-08-16T10:32:34.411Z,21.2
2017-08-16T10:33:37.222Z,21.3
2017-08-16T10:34:40.025Z,21.3
2017-08-16T10:35:42.500Z,21.4
2017-08-16T10:36:45.305Z,21.3
2017-08-16T10:37:48.777Z,21.2
2017-08-16T10:38:51.233Z,21.2
2017-08-16T10:39:53.694Z,21.2
2017-08-16T10:40:56.168Z,21.3
2017-08-16T10:41:58.622Z,21.2
2017-08-16T10:43:01.087Z,21.2
2017-08-16T10:44:03.554Z,21.1
2017-08-16T10:45:06.021Z,21
2017-08-16T10:46:08.487Z,21
2017-08-16T10:47:10.954Z,20.9
2017-08-16T10:48:13.398Z,20.9
2017-08-16T10:49:15.871Z,21
2017-08-16T10:50:18.341Z,20.9
2017-08-16T10:51:20.798Z,20.9
2017-08-16T10:52:23.253Z,20.8
2017-08-16T10:53:25.706Z,20.8
2017-08-16T10:54:28.509Z,20.9
2017-08-16T10:55:30.986Z,20.9
2017-08-16T10:56:33.444Z,20.9
2017-08-16T10:57:35.908Z,20.9
2017-08-16T10:58:38.369Z,20.8
2017-08-16T10:59:41.181Z,20.8
2017-08-16T11:00:43.658Z,20.8
2017-08-16T11:01:46.130Z,20.8
2017-08-16T11:02:48.924Z,20.9
2017-08-16T11:03:52.062Z,20.9
2017-08-16T11:04:54.523Z,21
2017-08-16T11:05:56.984Z,21.1
2017-08-16T11:06:59.820Z,21.2
2017-08-16T11:08:02.991Z,21.2
2017-08-16T11:09:05.466Z,21.2
2017-08-16T11:10:08.261Z,21.3
2017-08-16T11:11:10.761Z,21.3
2017-08-16T11:12:13.228Z,21.4
2017-08-16T11:13:15.702Z,21.5
2017-08-16T11:14:18.156Z,21.4
2017-08-16T11:15:20.619Z,21.5
2017-08-16T11:16:23.081Z,21.6
2017-08-16T11:17:25.564Z,21.6
2017-08-16T11:18:28.024Z,21.5
2017-08-16T11:19:30.832Z,21.5
2017-08-16T11:20:33.977Z,21.5
2017-08-16T11:21:36.438Z,21.5
2017-08-16T11:22:39.236Z,21.7
2017-08-16T11:23:41.733Z,21.9
2017-08-16T11:24:44.538Z,21.9
2017-08-16T11:25:47.019Z,22
2017-08-16T11:26:49.813Z,22.1
2017-08-16T11:27:52.286Z,22.2
2017-08-16T11:28:54.759Z,22.2
2017-08-16T11:29:57.236Z,22.1
2017-08-16T11:31:00.024Z,22.1
2017-08-16T11:32:03.168Z,22.1
2017-08-16T11:33:05.968Z,22.3
2017-08-16T11:34:08.438Z,22.5
2017-08-16T11:35:10.901Z,22.7
2017-08-16T11:36:13.744Z,22.9
2017-08-16T11:37:16.202Z,23.1
2017-08-16T11:38:18.678Z,23.2
2017-08-16T11:39:21.143Z,23.2
2017-08-16T11:40:23.615Z,23.2
2017-08-16T11:41:26.423Z,23.5
2017-08-16T11:42:29.221Z,23.9
2017-08-16T11:43:32.009Z,24
2017-08-16T11:44:34.477Z,23.9
2017-08-16T11:45:37.640Z,24
2017-08-16T11:46:40.103Z,24.2
2017-08-16T11:47:42.582Z,24.4
2017-08-16T11:48:45.730Z,24.3
2017-08-16T11:49:49.211Z,23.8
2017-08-16T11:50:52.016Z,23.7
2017-08-16T11:51:54.840Z,23.8
2017-08-16T11:52:57.661Z,23.5
2017-08-16T11:54:00.851Z,23.4
2017-08-16T11:55:03.341Z,23.1
2017-08-16T11:56:05.815Z,23.1
2017-08-16T11:57:08.275Z,22.8
2017-08-16T11:58:11.080Z,22.7
2017-08-16T11:59:13.541Z,22.7
2017-08-16T12:00:16.366Z,22.8
2017-08-16T12:01:19.183Z,22.8
2017-08-16T12:02:22.319Z,22.8
2017-08-16T12:03:25.128Z,23.1
2017-08-16T12:04:27.625Z,23.5
2017-08-16T12:05:30.107Z,23.6
2017-08-16T12:06:32.574Z,23.6
2017-08-16T12:07:35.036Z,23.6
2017-08-16T12:08:37.495Z,23.4
2017-08-16T12:09:40.004Z,23.3
2017-08-16T12:10:42.821Z,23.1
2017-08-16T12:11:45.283Z,23
2017-08-16T12:12:48.106Z,23.1
2017-08-16T12:13:51.598Z,23.1
2017-08-16T12:14:54.075Z,23
2017-08-16T12:15:56.554Z,22.9
2017-08-16T12:16:59.391Z,22.8
2017-08-16T12:18:02.532Z,22.8
2017-08-16T12:19:05.020Z,23.1
2017-08-16T12:20:07.499Z,23.4
2017-08-16T12:21:09.953Z,23.7
2017-08-16T12:22:12.427Z,23.9
2017-08-16T12:23:15.247Z,23.9
2017-08-16T12:24:18.402Z,24.1
2017-08-16T12:25:20.873Z,24.4
2017-08-16T12:26:23.333Z,23.9
2017-08-16T12:27:25.803Z,24
2017-08-16T12:28:28.283Z,24.3
2017-08-16T12:29:30.763Z,24.4
2017-08-16T12:30:33.596Z,24.5
2017-08-16T12:31:36.076Z,24.4
2017-08-16T12:32:38.587Z,24.3
2017-08-16T12:33:41.405Z,24
2017-08-16T12:34:43.885Z,24
2017-08-16T12:35:46.710Z,24.2
2017-08-16T12:36:49.504Z,24.4
2017-08-16T12:37:52.005Z,24.7
2017-08-16T12:38:54.478Z,24.5
2017-08-16T12:39:57.297Z,23.9
2017-08-16T12:41:00.448Z,24
2017-08-16T12:42:03.599Z,24
2017-08-16T12:43:06.058Z,24
2017-08-16T12:44:08.537Z,24
2017-08-16T12:45:10.997Z,24
2017-08-16T12:46:13.456Z,23.9
2017-08-16T12:47:16.270Z,23.8
2017-08-16T12:48:19.088Z,23.4
2017-08-16T12:49:21.566Z,23.1
2017-08-16T12:50:24.042Z,22.9
2017-08-16T12:51:26.508Z,22.9
2017-08-16T12:52:28.974Z,22.8
2017-08-16T12:53:31.820Z,23
2017-08-16T12:54:34.312Z,23.4
2017-08-16T12:55:36.823Z,23.8
2017-08-16T12:56:39.642Z,23.9
2017-08-16T12:57:42.791Z,24.3
2017-08-16T12:58:45.257Z,24.2
2017-08-16T12:59:47.728Z,24
2017-08-16T13:00:50.543Z,24.1
2017-08-16T13:01:52.999Z,24.5
2017-08-16T13:02:56.523Z,24.6
2017-08-16T13:03:58.992Z,24.3
2017-08-16T13:05:02.502Z,24.2
2017-08-16T13:06:05.666Z,24.2
2017-08-16T13:07:08.143Z,24.3
2017-08-16T13:08:10.961Z,24.1
2017-08-16T13:09:13.450Z,24.1
2017-08-16T13:10:15.919Z,24.1
2017-08-16T13:11:18.767Z,23.9
2017-08-16T13:12:21.229Z,23.9
2017-08-16T13:13:23.707Z,23.9
2017-08-16T13:14:26.520Z,23.7
2017-08-16T13:15:29.689Z,23.5
2017-08-16T13:16:32.148Z,23.4
2017-08-16T13:17:34.627Z,23.4
2017-08-16T13:18:37.443Z,23.5
2017-08-16T13:19:39.913Z,23.8
2017-08-16T13:20:42.736Z,24.1
2017-08-16T13:21:45.552Z,24.4
2017-08-16T13:22:48.028Z,24.5
2017-08-16T13:23:50.838Z,24.5
2017-08-16T13:24:53.651Z,24.5
2017-08-16T13:25:56.122Z,24.6
2017-08-16T13:26:58.593Z,24.8
2017-08-16T13:28:01.722Z,24.8
2017-08-16T13:29:04.224Z,25.1
2017-08-16T13:30:06.725Z,25.1
2017-08-16T13:31:09.554Z,25.1
2017-08-16T13:32:12.374Z,25.2
2017-08-16T13:33:15.221Z,25.1
2017-08-16T13:34:17.692Z,25.5
2017-08-16T13:35:21.211Z,25.9
2017-08-16T13:36:23.688Z,25.4
2017-08-16T13:37:26.496Z,25
2017-08-16T13:38:28.968Z,25.2
2017-08-16T13:39:31.458Z,25.2
2017-08-16T13:40:34.270Z,25.5
2017-08-16T13:41:36.757Z,25.7
2017-08-16T13:42:39.232Z,25.7
2017-08-16T13:43:41.702Z,25.5
2017-08-16T13:44:44.509Z,25.8
2017-08-16T13:45:46.991Z,25.7
2017-08-16T13:46:49.815Z,25.7
2017-08-16T13:47:52.299Z,25.5
2017-08-16T13:48:54.772Z,25.8
2017-08-16T13:49:57.574Z,25.6
2017-08-16T13:51:00.052Z,25.2
2017-08-16T13:52:02.887Z,25.1
2017-08-16T13:53:06.402Z,25
2017-08-16T13:54:09.211Z,24.8
2017-08-16T13:55:12.378Z,24.7
2017-08-16T13:56:14.866Z,24.8
2017-08-16T13:57:17.675Z,24.5